Time;durP1;ratioP1;P1;durP2;ratioP2;P2;SDS_P1;SDS_P2;PMS_P1;PMS_P2;Temp;Humidity;BMP_temperature;BMP_pressure;BME280_temperature;BME280_humidity;BME280_pressure;Samples;Min_cycle;Max_cycle;Signal;HPM_P1;HPM_P2
2023/05/05 00:02:13;;;;;;;2.70;2.60;;;;;;;;;;10435088;28;20218;-77
2023/05/05 00:07:14;;;;;;;5.00;3.30;;;;;;;;;;10435310;28;20229;-73
2023/05/05 00:12:15;;;;;;;2.97;2.88;;;;;;;;;;10445390;28;20246;-75
2023/05/05 00:17:16;;;;;;;2.95;2.78;;;;;;;;;;10441310;28;20727;-77
2023/05/05 00:22:18;;;;;;;4.35;3.17;;;;;;;;;;10443780;28;21058;-76
2023/05/05 00:27:18;;;;;;;3.63;3.28;;;;;;;;;;10444233;28;20651;-74
2023/05/05 00:32:19;;;;;;;4.95;3.50;;;;;;;;;;10439412;28;20217;-75
2023/05/05 00:37:20;;;;;;;4.97;3.58;;;;;;;;;;10442868;28;20206;-77
2023/05/05 00:42:21;;;;;;;3.80;3.53;;;;;;;;;;10438148;28;20218;-76
2023/05/05 00:47:22;;;;;;;4.00;3.65;;;;;;;;;;10441989;28;21116;-76
2023/05/05 00:52:23;;;;;;;3.05;2.80;;;;;;;;;;10433590;28;21079;-75
2023/05/05 00:57:25;;;;;;;3.88;3.63;;;;;;;;;;10440968;28;20214;-75
2023/05/05 01:02:26;;;;;;;3.85;3.42;;;;;;;;;;10436639;28;20227;-75
2023/05/05 01:07:40;;;;;;;4.40;3.65;;;;;;;;;;10444358;28;20210;-76
2023/05/05 01:13:00;;;;;;;4.28;3.67;;;;;;;;;;10441796;28;20268;-76
2023/05/05 01:18:08;;;;;;;9.93;3.75;;;;;;;;;;10443947;28;20237;-76
2023/05/05 01:23:11;;;;;;;6.20;3.50;;;;;;;;;;10433251;28;20280;-77
2023/05/05 01:28:26;;;;;;;4.78;3.40;;;;;;;;;;10447393;28;20218;-77
2023/05/05 01:33:29;;;;;;;3.15;2.80;;;;;;;;;;10448332;28;20230;-74
2023/05/05 01:38:33;;;;;;;3.92;3.30;;;;;;;;;;10424963;28;20305;-76
2023/05/05 01:43:36;;;;;;;3.30;3.10;;;;;;;;;;10431512;28;20221;-75
2023/05/05 01:48:38;;;;;;;4.05;3.70;;;;;;;;;;10414038;28;20253;-78
2023/05/05 01:53:40;;;;;;;3.38;3.17;;;;;;;;;;10421981;28;20221;-74
2023/05/05 01:58:44;;;;;;;3.97;2.92;;;;;;;;;;10442467;28;20222;-76
2023/05/05 02:03:46;;;;;;;3.47;2.55;;;;;;;;;;10410908;28;20219;-76
2023/05/05 02:08:48;;;;;;;2.72;2.55;;;;;;;;;;10424735;28;20220;-76
2023/05/05 02:13:50;;;;;;;5.72;2.97;;;;;;;;;;10425548;28;20218;-75
2023/05/05 02:18:52;;;;;;;2.95;2.80;;;;;;;;;;10435958;28;20216;-77
2023/05/05 02:23:53;;;;;;;5.35;2.38;;;;;;;;;;10440220;28;21006;-76
2023/05/05 02:29:04;;;;;;;3.00;2.75;;;;;;;;;;10430535;28;20210;-75
2023/05/05 02:34:06;;;;;;;2.80;2.58;;;;;;;;;;10427732;28;20349;-75
2023/05/05 02:39:21;;;;;;;4.10;2.58;;;;;;;;;;10403320;28;20211;-74
2023/05/05 02:44:24;;;;;;;2.65;2.15;;;;;;;;;;10419694;28;20210;-77
2023/05/05 02:49:25;;;;;;;3.63;2.80;;;;;;;;;;10436095;28;20303;-76
2023/05/05 02:54:32;;;;;;;2.75;2.63;;;;;;;;;;10406194;28;20253;-75
2023/05/05 02:59:38;;;;;;;2.38;2.35;;;;;;;;;;10440542;28;20225;-76
2023/05/05 03:04:46;;;;;;;3.10;2.90;;;;;;;;;;10432909;28;20218;-76
2023/05/05 03:09:57;;;;;;;4.90;2.47;;;;;;;;;;10425769;28;20225;-76
2023/05/05 03:15:00;;;;;;;2.20;2.10;;;;;;;;;;10429868;28;20257;-77
2023/05/05 03:20:05;;;;;;;2.95;2.65;;;;;;;;;;10438343;28;20223;-78
2023/05/05 03:25:09;;;;;;;3.20;2.70;;;;;;;;;;10441328;28;20210;-75
2023/05/05 03:30:10;;;;;;;4.03;2.92;;;;;;;;;;10413955;28;20696;-78
2023/05/05 03:35:19;;;;;;;2.42;2.35;;;;;;;;;;10441390;28;20207;-76
2023/05/05 03:40:20;;;;;;;2.88;2.67;;;;;;;;;;10442339;28;20210;-75
2023/05/05 03:45:21;;;;;;;3.53;3.22;;;;;;;;;;10427202;28;20214;-76
2023/05/05 03:50:23;;;;;;;2.42;2.33;;;;;;;;;;10444430;28;20214;-77
2023/05/05 03:55:24;;;;;;;3.75;3.00;;;;;;;;;;10419337;28;20202;-77
2023/05/05 04:00:26;;;;;;;2.63;2.40;;;;;;;;;;10435311;28;20249;-74
2023/05/05 04:05:28;;;;;;;3.13;2.78;;;;;;;;;;10438894;28;20209;-76
2023/05/05 04:10:30;;;;;;;8.00;3.22;;;;;;;;;;10424792;28;20222;-75
2023/05/05 04:15:32;;;;;;;2.90;2.60;;;;;;;;;;10442838;28;20238;-75
2023/05/05 04:20:34;;;;;;;2.83;2.72;;;;;;;;;;10442719;28;20226;-77
2023/05/05 04:25:36;;;;;;;3.08;2.55;;;;;;;;;;10437590;28;20218;-78
2023/05/05 04:30:38;;;;;;;3.28;2.78;;;;;;;;;;10440574;28;20234;-77
2023/05/05 04:35:39;;;;;;;4.25;2.80;;;;;;;;;;10440394;28;20217;-76
2023/05/05 04:40:40;;;;;;;3.10;2.83;;;;;;;;;;10442178;28;20211;-73
2023/05/05 04:45:51;;;;;;;2.78;2.58;;;;;;;;;;10411511;28;20325;-76
2023/05/05 04:50:53;;;;;;;4.05;2.40;;;;;;;;;;10444373;28;20223;-76
2023/05/05 04:55:54;;;;;;;3.25;3.00;;;;;;;;;;10449048;28;20217;-76
2023/05/05 05:00:56;;;;;;;5.18;2.80;;;;;;;;;;10441474;28;20214;-76
2023/05/05 05:05:57;;;;;;;3.20;2.90;;;;;;;;;;10435317;28;20225;-77
2023/05/05 05:10:58;;;;;;;3.10;2.80;;;;;;;;;;10429179;28;20218;-76
2023/05/05 05:16:00;;;;;;;3.10;2.78;;;;;;;;;;10445454;28;20238;-75
2023/05/05 05:21:02;;;;;;;3.60;2.55;;;;;;;;;;10440931;28;20218;-77
2023/05/05 05:26:04;;;;;;;3.10;2.95;;;;;;;;;;10420498;28;20310;-74
2023/05/05 05:31:05;;;;;;;3.53;3.22;;;;;;;;;;10428813;28;20229;-76
2023/05/05 05:36:07;;;;;;;2.92;2.75;;;;;;;;;;10430462;28;20218;-76
2023/05/05 05:41:08;;;;;;;3.10;2.90;;;;;;;;;;10421460;28;20271;-76
2023/05/05 05:46:11;;;;;;;3.20;3.03;;;;;;;;;;10424894;28;20207;-76
2023/05/05 05:51:13;;;;;;;2.90;2.70;;;;;;;;;;10432615;28;20227;-78
2023/05/05 05:56:15;;;;;;;2.75;2.55;;;;;;;;;;10430909;28;20606;-77
2023/05/05 06:01:16;;;;;;;3.70;3.25;;;;;;;;;;10434744;28;20223;-77
2023/05/05 06:06:18;;;;;;;4.72;3.20;;;;;;;;;;10415834;28;20309;-74
2023/05/05 06:11:19;;;;;;;3.58;3.38;;;;;;;;;;10410520;28;20218;-78
2023/05/05 06:16:20;;;;;;;3.35;3.05;;;;;;;;;;10445527;28;20214;-78
2023/05/05 06:21:22;;;;;;;5.45;3.33;;;;;;;;;;10442217;28;20220;-76
2023/05/05 06:26:24;;;;;;;3.60;3.33;;;;;;;;;;10431517;28;20257;-75
2023/05/05 06:31:25;;;;;;;3.85;3.58;;;;;;;;;;10427989;28;20317;-79
2023/05/05 06:36:27;;;;;;;2.70;2.50;;;;;;;;;;10434010;28;20223;-78
2023/05/05 06:41:28;;;;;;;3.80;3.40;;;;;;;;;;10410771;28;21135;-78
2023/05/05 06:46:29;;;;;;;4.43;3.10;;;;;;;;;;10438622;28;20214;-78
2023/05/05 06:51:30;;;;;;;4.22;3.50;;;;;;;;;;10428595;28;20314;-77
2023/05/05 06:56:31;;;;;;;4.40;3.60;;;;;;;;;;10429736;28;20344;-78
2023/05/05 07:01:32;;;;;;;3.38;3.08;;;;;;;;;;10423201;28;20226;-77
2023/05/05 07:06:33;;;;;;;2.58;2.47;;;;;;;;;;10432021;28;20703;-79
2023/05/05 07:11:34;;;;;;;4.22;3.90;;;;;;;;;;10405117;28;20226;-77
2023/05/05 07:16:35;;;;;;;3.13;2.92;;;;;;;;;;10429226;28;20241;-75
2023/05/05 07:21:38;;;;;;;6.38;3.88;;;;;;;;;;10434940;28;20226;-76
2023/05/05 07:26:39;;;;;;;4.32;3.50;;;;;;;;;;10439680;28;20229;-77
2023/05/05 07:31:41;;;;;;;4.90;2.88;;;;;;;;;;10434084;28;20272;-80
2023/05/05 07:36:42;;;;;;;3.38;3.08;;;;;;;;;;10433670;28;20218;-76
2023/05/05 07:41:43;;;;;;;5.45;3.67;;;;;;;;;;10431619;28;20734;-77
2023/05/05 07:46:44;;;;;;;6.13;3.55;;;;;;;;;;10428800;28;20218;-76
2023/05/05 07:51:45;;;;;;;4.75;3.72;;;;;;;;;;10445950;28;20230;-79
2023/05/05 07:56:46;;;;;;;3.35;3.13;;;;;;;;;;10440599;28;20218;-76
2023/05/05 08:01:47;;;;;;;2.88;2.78;;;;;;;;;;10441927;28;20229;-78
2023/05/05 08:06:48;;;;;;;3.40;3.20;;;;;;;;;;10443087;28;20210;-77
2023/05/05 08:11:49;;;;;;;3.22;2.92;;;;;;;;;;10440558;28;20238;-75
2023/05/05 08:16:50;;;;;;;4.50;2.78;;;;;;;;;;10412738;28;20708;-78
2023/05/05 08:21:51;;;;;;;4.35;3.08;;;;;;;;;;10439478;28;20304;-78
2023/05/05 08:26:52;;;;;;;3.22;2.92;;;;;;;;;;10439599;28;20236;-78
2023/05/05 08:31:54;;;;;;;2.88;2.60;;;;;;;;;;10446327;28;20237;-78
2023/05/05 08:36:55;;;;;;;3.42;2.90;;;;;;;;;;10446147;28;20693;-76
2023/05/05 08:41:57;;;;;;;2.75;2.63;;;;;;;;;;10447131;28;20869;-79
2023/05/05 08:47:00;;;;;;;4.70;2.50;;;;;;;;;;10437219;28;20219;-75
2023/05/05 08:52:04;;;;;;;2.70;2.60;;;;;;;;;;10426779;28;20244;-79
2023/05/05 08:57:07;;;;;;;2.72;2.30;;;;;;;;;;10445972;28;20609;-78
2023/05/05 09:02:09;;;;;;;3.78;2.50;;;;;;;;;;10446251;28;20218;-79
2023/05/05 09:07:10;;;;;;;1.90;1.80;;;;;;;;;;10449352;28;20316;-78
2023/05/05 09:12:11;;;;;;;4.15;1.73;;;;;;;;;;10441353;28;20256;-76
2023/05/05 09:17:25;;;;;;;6.68;2.58;;;;;;;;;;10453044;28;20220;-78
2023/05/05 09:22:36;;;;;;;4.43;2.17;;;;;;;;;;10444173;28;20237;-78
2023/05/05 09:27:39;;;;;;;2.75;1.90;;;;;;;;;;10450155;28;20236;-75
2023/05/05 09:32:47;;;;;;;2.58;2.47;;;;;;;;;;10433453;28;20258;-78
2023/05/05 09:37:48;;;;;;;2.75;2.25;;;;;;;;;;10416084;28;20766;-79
2023/05/05 09:43:00;;;;;;;2.08;1.83;;;;;;;;;;10442244;28;20276;-78
2023/05/05 09:48:01;;;;;;;2.22;2.13;;;;;;;;;;10425726;28;20218;-78
2023/05/05 09:53:02;;;;;;;1.90;1.83;;;;;;;;;;10443664;28;20222;-78
2023/05/05 09:58:17;;;;;;;2.13;1.90;;;;;;;;;;10448121;28;20218;-77
2023/05/05 10:03:18;;;;;;;4.85;2.08;;;;;;;;;;10443433;28;20217;-78
2023/05/05 10:08:20;;;;;;;3.92;1.55;;;;;;;;;;10444950;28;20700;-79
2023/05/05 10:13:22;;;;;;;2.90;1.60;;;;;;;;;;10448023;28;20297;-77
2023/05/05 10:18:24;;;;;;;1.38;1.27;;;;;;;;;;10447497;28;20334;-77
2023/05/05 10:23:28;;;;;;;1.65;1.55;;;;;;;;;;10444133;28;20268;-77
2023/05/05 10:28:33;;;;;;;2.08;1.98;;;;;;;;;;10444619;28;20218;-78
2023/05/05 10:33:39;;;;;;;2.03;1.88;;;;;;;;;;10442410;28;20226;-76
2023/05/05 10:38:41;;;;;;;7.70;1.60;;;;;;;;;;10446049;28;20222;-78
2023/05/05 10:43:42;;;;;;;2.38;2.05;;;;;;;;;;10432451;28;20218;-77
2023/05/05 10:48:50;;;;;;;1.70;1.60;;;;;;;;;;10441252;28;20584;-76
2023/05/05 10:53:56;;;;;;;1.80;1.70;;;;;;;;;;10441996;28;20735;-77
2023/05/05 10:58:57;;;;;;;2.17;1.98;;;;;;;;;;10443184;28;20225;-79
2023/05/05 11:04:17;;;;;;;1.60;1.60;;;;;;;;;;10440429;28;20225;-78
2023/05/05 11:09:27;;;;;;;2.22;1.70;;;;;;;;;;10442242;28;20326;-76
2023/05/05 11:14:28;;;;;;;3.90;1.73;;;;;;;;;;10447338;28;20218;-78
2023/05/05 11:19:41;;;;;;;5.68;1.60;;;;;;;;;;10432978;28;20245;-77
2023/05/05 11:24:43;;;;;;;0.82;0.82;;;;;;;;;;10440404;28;20227;-77
2023/05/05 11:30:17;;;;;;;2.08;1.38;;;;;;;;;;10437665;28;21068;-79
2023/05/05 11:35:18;;;;;;;1.70;1.67;;;;;;;;;;10402337;28;20237;-75
2023/05/05 11:40:21;;;;;;;3.85;1.55;;;;;;;;;;10434248;28;20205;-76
2023/05/05 11:45:23;;;;;;;1.33;1.23;;;;;;;;;;10430546;28;20984;-77
2023/05/05 11:50:25;;;;;;;2.00;1.35;;;;;;;;;;10441988;28;20727;-79
2023/05/05 11:55:26;;;;;;;1.23;1.23;;;;;;;;;;10441708;28;20217;-77
2023/05/05 12:00:31;;;;;;;3.63;1.67;;;;;;;;;;10446869;28;20222;-79
2023/05/05 12:05:32;;;;;;;4.63;1.30;;;;;;;;;;10436558;28;20242;-79
2023/05/05 12:10:33;;;;;;;2.08;1.35;;;;;;;;;;10421982;28;20230;-78
2023/05/05 12:15:34;;;;;;;1.35;1.10;;;;;;;;;;10424035;28;20222;-75
2023/05/05 12:20:36;;;;;;;1.55;1.50;;;;;;;;;;10412787;28;20231;-73
2023/05/05 12:25:37;;;;;;;1.58;1.48;;;;;;;;;;10425377;28;20214;-76
2023/05/05 12:30:38;;;;;;;1.48;1.30;;;;;;;;;;10436721;28;20226;-76
2023/05/05 12:35:40;;;;;;;2.70;0.98;;;;;;;;;;10433114;28;20223;-75
2023/05/05 12:40:42;;;;;;;1.25;1.05;;;;;;;;;;10430338;28;20222;-79
2023/05/05 12:45:43;;;;;;;0.80;0.80;;;;;;;;;;10436693;28;20222;-75
2023/05/05 12:50:44;;;;;;;1.70;1.17;;;;;;;;;;10431977;28;20595;-75
2023/05/05 12:55:45;;;;;;;1.55;1.35;;;;;;;;;;10436727;28;20276;-76
2023/05/05 13:01:06;;;;;;;1.33;1.10;;;;;;;;;;10439204;28;20297;-77
2023/05/05 13:06:20;;;;;;;3.60;1.67;;;;;;;;;;10438884;28;20356;-75
2023/05/05 13:11:21;;;;;;;3.20;1.52;;;;;;;;;;10445344;28;20301;-76
2023/05/05 13:16:22;;;;;;;1.75;1.30;;;;;;;;;;10441414;28;20218;-77
2023/05/05 13:21:23;;;;;;;2.58;1.25;;;;;;;;;;10447690;28;20226;-77
2023/05/05 13:26:24;;;;;;;2.88;1.40;;;;;;;;;;10440694;28;20210;-76
2023/05/05 13:31:25;;;;;;;1.90;1.05;;;;;;;;;;10446473;28;20751;-75
2023/05/05 13:36:26;;;;;;;1.23;0.98;;;;;;;;;;10447443;28;20229;-78
2023/05/05 13:41:27;;;;;;;2.30;2.10;;;;;;;;;;10442265;28;20218;-75
2023/05/05 13:46:28;;;;;;;4.05;1.50;;;;;;;;;;10447637;28;20659;-77
2023/05/05 13:51:29;;;;;;;1.63;1.52;;;;;;;;;;10435693;28;20902;-77
2023/05/05 13:56:30;;;;;;;3.20;1.60;;;;;;;;;;10438920;28;20252;-77
2023/05/05 14:01:31;;;;;;;4.50;2.28;;;;;;;;;;10425279;28;20291;-76
2023/05/05 14:06:34;;;;;;;1.95;1.65;;;;;;;;;;10434048;28;20706;-77
2023/05/05 14:11:35;;;;;;;2.13;2.03;;;;;;;;;;10439836;28;20250;-77
2023/05/05 14:16:36;;;;;;;3.10;1.90;;;;;;;;;;10430835;28;20250;-75
2023/05/05 14:21:37;;;;;;;4.47;2.10;;;;;;;;;;10407143;28;20313;-77
2023/05/05 14:26:38;;;;;;;6.28;2.10;;;;;;;;;;10441397;28;20222;-76
2023/05/05 14:31:39;;;;;;;2.20;2.10;;;;;;;;;;10443466;28;20222;-75
2023/05/05 14:36:40;;;;;;;3.50;3.20;;;;;;;;;;10435767;28;20925;-75
2023/05/05 14:41:41;;;;;;;3.42;2.30;;;;;;;;;;10444150;28;20226;-77
2023/05/05 14:46:42;;;;;;;4.03;2.28;;;;;;;;;;10444730;28;20218;-78
2023/05/05 14:51:43;;;;;;;2.50;2.38;;;;;;;;;;10442224;28;20582;-77
2023/05/05 14:56:44;;;;;;;2.75;2.15;;;;;;;;;;10439680;28;20706;-78
2023/05/05 15:01:45;;;;;;;2.65;1.88;;;;;;;;;;10411772;28;20221;-77
2023/05/05 15:06:46;;;;;;;2.08;1.98;;;;;;;;;;10423353;28;20221;-77
2023/05/05 15:11:47;;;;;;;3.70;1.67;;;;;;;;;;10438454;28;20231;-76
2023/05/05 15:16:48;;;;;;;1.70;1.60;;;;;;;;;;10437361;28;20280;-76
2023/05/05 15:21:52;;;;;;;2.70;1.55;;;;;;;;;;10437376;28;20229;-76
2023/05/05 15:26:53;;;;;;;1.80;1.80;;;;;;;;;;10437573;28;20707;-78
2023/05/05 15:31:54;;;;;;;1.90;1.80;;;;;;;;;;10427064;28;20229;-78
2023/05/05 15:36:55;;;;;;;2.63;1.75;;;;;;;;;;10428634;28;20305;-77
2023/05/05 15:41:56;;;;;;;2.08;1.98;;;;;;;;;;10430038;28;20224;-78
2023/05/05 15:46:57;;;;;;;1.92;1.85;;;;;;;;;;10424382;28;20228;-77
2023/05/05 15:51:58;;;;;;;2.25;2.15;;;;;;;;;;10437519;28;20681;-78
2023/05/05 15:57:02;;;;;;;2.53;2.10;;;;;;;;;;10427054;28;20938;-77
2023/05/05 16:02:03;;;;;;;4.25;2.45;;;;;;;;;;10415134;28;20214;-78
2023/05/05 16:07:04;;;;;;;2.42;2.22;;;;;;;;;;10445843;28;20240;-78
2023/05/05 16:12:05;;;;;;;2.63;2.42;;;;;;;;;;10436641;28;20577;-81
2023/05/05 16:17:07;;;;;;;6.82;2.17;;;;;;;;;;10439034;28;20214;-78
2023/05/05 16:22:08;;;;;;;2.10;1.90;;;;;;;;;;10429493;28;20210;-78
2023/05/05 16:27:10;;;;;;;1.67;1.67;;;;;;;;;;10426000;28;20226;-80
2023/05/05 16:32:11;;;;;;;3.55;2.13;;;;;;;;;;10419793;28;20708;-77
2023/05/05 16:37:12;;;;;;;3.65;2.05;;;;;;;;;;10427525;28;20218;-79
2023/05/05 16:42:13;;;;;;;3.47;1.85;;;;;;;;;;10426895;28;20226;-79
2023/05/05 16:47:14;;;;;;;1.58;1.48;;;;;;;;;;10448916;28;20218;-78
2023/05/05 16:52:16;;;;;;;3.35;1.80;;;;;;;;;;10444910;28;20210;-78
2023/05/05 16:57:17;;;;;;;3.22;1.90;;;;;;;;;;10450591;28;20222;-83
2023/05/05 17:02:18;;;;;;;4.68;1.92;;;;;;;;;;10445958;28;20227;-79
2023/05/05 17:07:19;;;;;;;1.80;1.70;;;;;;;;;;10433936;28;20758;-77
2023/05/05 17:12:20;;;;;;;3.97;2.30;;;;;;;;;;10434563;28;20222;-77
2023/05/05 17:17:21;;;;;;;2.30;2.05;;;;;;;;;;10442324;28;20214;-74
2023/05/05 17:22:22;;;;;;;3.28;1.80;;;;;;;;;;10441770;28;20211;-75
2023/05/05 17:27:23;;;;;;;3.15;2.20;;;;;;;;;;10431306;28;20222;-77
2023/05/05 17:32:23;;;;;;;2.78;1.92;;;;;;;;;;10432201;28;21220;-77
2023/05/05 17:37:24;;;;;;;1.73;1.73;;;;;;;;;;10434233;28;20876;-77
2023/05/05 17:42:26;;;;;;;2.97;1.58;;;;;;;;;;10435152;28;20858;-78
2023/05/05 17:47:27;;;;;;;2.05;1.70;;;;;;;;;;10444480;28;20218;-77
2023/05/05 17:52:28;;;;;;;2.28;2.10;;;;;;;;;;10444285;28;21093;-78
2023/05/05 17:57:30;;;;;;;2.45;1.58;;;;;;;;;;10415463;28;20847;-80
2023/05/05 18:02:31;;;;;;;3.15;1.88;;;;;;;;;;10418009;28;20252;-77
2023/05/05 18:07:32;;;;;;;5.22;2.08;;;;;;;;;;10436111;28;20227;-78
2023/05/05 18:12:36;;;;;;;3.22;2.63;;;;;;;;;;10441362;28;20851;-79
2023/05/05 18:17:37;;;;;;;3.47;3.15;;;;;;;;;;10432625;28;20261;-78
2023/05/05 18:22:38;;;;;;;2.17;2.15;;;;;;;;;;10451803;28;20249;-81
2023/05/05 18:27:40;;;;;;;2.75;2.55;;;;;;;;;;10416710;28;20225;-80
2023/05/05 18:32:41;;;;;;;3.72;2.45;;;;;;;;;;10431220;28;20225;-80
2023/05/05 18:37:42;;;;;;;2.58;2.40;;;;;;;;;;10432888;28;20225;-79
2023/05/05 18:42:43;;;;;;;2.17;2.08;;;;;;;;;;10422159;28;20222;-79
2023/05/05 18:47:44;;;;;;;6.22;4.03;;;;;;;;;;10430460;28;20342;-80
2023/05/05 18:52:45;;;;;;;4.75;3.90;;;;;;;;;;10419151;28;20598;-80
2023/05/05 18:57:46;;;;;;;3.60;3.40;;;;;;;;;;10412796;28;20213;-81
2023/05/05 19:02:47;;;;;;;4.07;3.88;;;;;;;;;;10429366;28;20308;-82
2023/05/05 19:07:48;;;;;;;14.60;7.88;;;;;;;;;;10438000;28;20218;-82
2023/05/05 19:12:49;;;;;;;4.15;3.78;;;;;;;;;;10442075;28;20276;-79
2023/05/05 19:17:50;;;;;;;7.47;4.30;;;;;;;;;;10431586;28;20761;-80
2023/05/05 19:22:51;;;;;;;4.30;4.00;;;;;;;;;;10436770;28;20233;-77
2023/05/05 19:27:52;;;;;;;6.95;4.93;;;;;;;;;;10435287;28;20224;-80
2023/05/05 19:32:53;;;;;;;4.70;4.40;;;;;;;;;;10439697;28;20751;-79
2023/05/05 19:37:55;;;;;;;5.90;5.00;;;;;;;;;;10425241;28;20360;-77
2023/05/05 19:42:56;;;;;;;5.22;4.85;;;;;;;;;;10438942;28;20214;-79
2023/05/05 19:47:57;;;;;;;7.85;5.53;;;;;;;;;;10438293;28;20214;-80
2023/05/05 19:52:58;;;;;;;5.82;5.22;;;;;;;;;;10432649;28;20222;-79
2023/05/05 19:57:59;;;;;;;5.22;4.78;;;;;;;;;;10443300;28;20309;-79
2023/05/05 20:03:01;;;;;;;5.95;4.75;;;;;;;;;;10433360;28;20233;-77
2023/05/05 20:08:02;;;;;;;7.88;4.50;;;;;;;;;;10432506;28;20230;-79
2023/05/05 20:13:03;;;;;;;6.47;5.40;;;;;;;;;;10436359;28;20263;-80
2023/05/05 20:18:04;;;;;;;6.57;5.97;;;;;;;;;;10440180;28;21077;-83
2023/05/05 20:23:05;;;;;;;6.25;5.13;;;;;;;;;;10457613;28;20690;-79
2023/05/05 20:28:06;;;;;;;7.28;5.78;;;;;;;;;;10446361;28;20237;-79
2023/05/05 20:33:07;;;;;;;5.32;4.95;;;;;;;;;;10428397;28;20249;-78
2023/05/05 20:38:08;;;;;;;5.97;5.50;;;;;;;;;;10426826;28;20222;-79
2023/05/05 20:43:09;;;;;;;5.97;5.50;;;;;;;;;;10440995;28;20220;-77
2023/05/05 20:48:10;;;;;;;5.45;5.05;;;;;;;;;;10440283;28;20218;-80
2023/05/05 20:53:14;;;;;;;7.20;6.50;;;;;;;;;;10424168;28;20224;-78
2023/05/05 20:58:16;;;;;;;7.07;5.40;;;;;;;;;;10453840;28;20252;-76
2023/05/05 21:03:17;;;;;;;7.68;5.35;;;;;;;;;;10446747;28;20205;-77
2023/05/05 21:08:18;;;;;;;6.18;5.57;;;;;;;;;;10439440;28;20229;-78
2023/05/05 21:13:19;;;;;;;5.50;5.00;;;;;;;;;;10444844;28;20245;-76
2023/05/05 21:18:20;;;;;;;6.75;5.82;;;;;;;;;;10452419;28;20221;-77
2023/05/05 21:23:21;;;;;;;6.57;5.68;;;;;;;;;;10445214;28;20211;-78
2023/05/05 21:28:22;;;;;;;5.05;4.60;;;;;;;;;;10444429;28;20211;-77
2023/05/05 21:33:23;;;;;;;9.77;6.00;;;;;;;;;;10445509;28;20234;-77
2023/05/05 21:38:24;;;;;;;6.47;5.97;;;;;;;;;;10426002;28;20847;-76
2023/05/05 21:43:27;;;;;;;8.05;6.25;;;;;;;;;;10446340;28;20425;-75
2023/05/05 21:48:29;;;;;;;6.97;6.25;;;;;;;;;;10450934;28;20284;-78
2023/05/05 21:53:30;;;;;;;6.32;5.75;;;;;;;;;;10431294;28;20225;-80
2023/05/05 21:58:31;;;;;;;6.75;5.85;;;;;;;;;;10445349;28;20216;-77
2023/05/05 22:03:33;;;;;;;9.15;5.38;;;;;;;;;;10428036;28;20230;-77
2023/05/05 22:08:34;;;;;;;5.15;4.72;;;;;;;;;;10430046;28;20233;-78
2023/05/05 22:13:37;;;;;;;4.45;4.15;;;;;;;;;;10450261;28;20225;-75
2023/05/05 22:18:38;;;;;;;4.18;3.78;;;;;;;;;;10443556;28;20210;-77
2023/05/05 22:23:42;;;;;;;3.83;3.60;;;;;;;;;;10437808;28;20226;-76
2023/05/05 22:28:43;;;;;;;4.28;3.78;;;;;;;;;;10444140;28;20253;-76
2023/05/05 22:33:44;;;;;;;3.90;3.60;;;;;;;;;;10443601;28;20219;-75
2023/05/05 22:38:45;;;;;;;4.30;3.90;;;;;;;;;;10429883;28;20225;-78
2023/05/05 22:43:47;;;;;;;3.78;3.50;;;;;;;;;;10446905;28;20567;-78
2023/05/05 22:48:48;;;;;;;10.98;4.20;;;;;;;;;;10440474;28;20222;-78
2023/05/05 22:53:49;;;;;;;4.95;3.92;;;;;;;;;;10434509;28;20220;-76
2023/05/05 22:58:51;;;;;;;4.47;3.83;;;;;;;;;;10430057;28;20240;-77
2023/05/05 23:03:51;;;;;;;6.30;3.72;;;;;;;;;;10430054;28;20667;-80
2023/05/05 23:08:52;;;;;;;3.53;3.13;;;;;;;;;;10436304;28;20210;-77
2023/05/05 23:13:53;;;;;;;4.43;3.95;;;;;;;;;;10445548;28;20223;-77
2023/05/05 23:18:54;;;;;;;3.53;3.28;;;;;;;;;;10432632;28;20221;-77
2023/05/05 23:23:55;;;;;;;5.05;3.88;;;;;;;;;;10433342;28;20798;-76
2023/05/05 23:28:57;;;;;;;5.40;3.97;;;;;;;;;;10440704;28;20769;-78
2023/05/05 23:33:58;;;;;;;5.68;3.67;;;;;;;;;;10439007;28;20221;-77
2023/05/05 23:38:59;;;;;;;4.55;4.00;;;;;;;;;;10442552;28;20226;-76
2023/05/05 23:44:00;;;;;;;6.18;4.00;;;;;;;;;;10459766;28;21052;-75
2023/05/05 23:49:01;;;;;;;4.47;4.07;;;;;;;;;;10443546;28;20767;-76
2023/05/05 23:54:02;;;;;;;7.53;4.25;;;;;;;;;;10442782;28;20225;-77
2023/05/05 23:59:04;;;;;;;4.13;3.83;;;;;;;;;;10447192;28;20217;-75
